Weather observations for the past three days for
Santa Maria Public Airport/Capt G Allan Hancock Field
Imperial (Metric)
Date Time (pdt) Wind (mph) Vis. (mi.) Weather Sky Cond. Temperature (ºF) Relative Humidity Wind Chill (°F) Heat Index (°F) Pressure Precipitation (in)
Air Dwpt 6 hour altimeter (in) sea level (mb) 1 hr 3 hr 6 hr
Max. Min.
31 06:51 NW 3 7.00 Overcast OVC012 57 52 83% 29.96 1014.6
31 05:51 NW 5 8.00 Overcast OVC010 57 53.1 87% 29.95 1014.2
31 04:51 W 3 6.00 Fog/Mist OVC009 57 53.1 57.9 55.9 87% 29.94 1014.0
31 03:51 Calm 6.00 Fog/Mist OVC009 57 53.1 87% 29.94 1014.0
31 02:51 W 6 7.00 Overcast OVC009 57.9 54 87% 29.94 1014.1
31 01:51 W 5 6.00 Fog/Mist OVC009 57.9 54 87% 29.95 1014.2
31 00:51 W 6 6.00 Fog/Mist OVC010 57 55 93% 29.95 1014.3
30 23:51 W 5 6.00 Fog/Mist OVC016 55.9 54 93% 29.95 1014.3
30 22:51 W 7 6.00 Fog/Mist OVC017 55.9 54 64.9 55.9 93% 29.95 1014.3
30 21:51 W 7 6.00 Fog/Mist BKN017 57 55 93% 29.95 1014.5
30 20:51 W 10 7.00 Fair CLR 57.9 55 90% 29.94 1014.1
30 19:51 W 10 8.00 Fair CLR 59 55 87% 29.92 1013.5
30 18:51 NW 14 7.00 Fair CLR 62.1 55 78% 29.93 1013.6
30 17:51 NW 14 7.00 Fair CLR 64.9 55 70% 29.93 1013.6
30 16:51 NW 15 7.00 Fair CLR 66.9 55 70 64 66% 29.93 1013.6
30 15:51 W 17 8.00 Fair CLR 69.1 54 59% 29.93 1013.5
30 14:51 W 16 8.00 Fair CLR 70 54 57% 29.95 1014.2
30 13:51 NW 16 7.00 Fair CLR 69.1 54 59% 29.96 1014.6
30 12:51 NW 16 7.00 Fair CLR 69.1 55 61% 29.96 1014.7
30 11:51 NW 8 6.00 Fair with Haze CLR 66.9 55 66% 29.97 1015.0
30 10:51 W 10 6.00 A Few Clouds with Haze FEW009 64.9 55 64.9 52 70% 29.98 1015.2
30 09:51 W 5 4.00 Overcast with Haze OVC008 59 54 83% 29.97 1015.0
30 08:51 NW 5 5.00 Fog/Mist OVC006 55 54 96% 29.97 1015.0
30 07:51 S 6 4.00 Fog/Mist OVC003 54 53.1 97% 29.96 1014.8
30 06:51 SE 3 2.50 Fog/Mist OVC002 54 53.1 97% 29.94 1014.2
30 05:51 SE 3 0.25 Fog VV002 53.1 53.1 100% 29.93 1013.8
30 04:51 Calm 2.50 Fog/Mist OVC003 52 51.1 55.9 51.1 97% 29.93 1013.8
30 03:51 S 5 1.00 Fog/Mist VV006 52 52 100% 29.93 1013.6
30 02:51 S 7 1.75 Fog/Mist BKN009 52 51.1 97% 29.92 1013.5
30 01:51 SE 5 7.00 Partly Cloudy SCT012 53.1 51.1 93% 29.93 1013.6
30 00:51 SE 3 7.00 Fair CLR 54 52 93% 29.94 1013.8
29 23:51 Calm 6.00 Fog/Mist CLR 55.9 54 93% 29.94 1013.9
29 22:51 W 5 7.00 Fair CLR 55.9 53.1 66.9 55 90% 29.94 1014.0
29 21:51 N 3 7.00 Fair CLR 57 54 90% 29.95 1014.5
29 20:51 W 5 7.00 Fair CLR 57.9 55 90% 29.94 1014.0
29 19:51 W 8 7.00 Fair CLR 60.1 55 84% 29.92 1013.5
29 18:51 W 12 7.00 Fair CLR 62.1 55 78% 29.92 1013.5
29 17:51 NW 14 G 22 7.00 Fair CLR 64.9 55.9 73% 29.93 1013.5
29 16:51 W 15 5.00 Fair with Haze CLR 66.9 55.9 73 64.9 68% 29.92 1013.2
29 15:51 W 13 5.00 Fair with Haze CLR 66.9 57 71% 29.93 1013.5
29 14:51 W 13 6.00 Fair with Haze CLR 69.1 57 66% 29.95 1014.1
29 13:51 NW 10 6.00 Fair with Haze CLR 69.1 57 66% 29.95 1014.4
29 12:51 NW 12 6.00 Fair with Haze CLR 69.1 57 66% 29.96 1014.7
29 11:51 W 12 7.00 Fair CLR 72 57.9 61% 29.99 1015.4
29 10:51 NW 5 6.00 Fair with Haze CLR 64.9 57 64.9 57 76% 29.97 1014.9
29 09:51 Calm 6.00 Fog/Mist CLR 61 57 87% 29.97 1015.0
29 08:51 NW 6 5.00 Fog/Mist OVC005 60.1 57 90% 29.97 1015.1
29 07:51 NW 6 3.00 Fog/Mist OVC003 57.9 55.9 93% 29.97 1015.0
29 06:51 NW 6 3.00 Fog/Mist OVC003 57.9 57 97% 29.95 1014.3
29 05:51 W 5 4.00 Fog/Mist OVC003 57.9 55.9 93% 29.93 1013.7
29 03:51 NW 5 6.00 Fog/Mist CLR 57.9 55.9 93% 29.92 1013.2
29 02:51 Calm 7.00 Fair CLR 59 55.9 90% 29.91 1013.0
29 01:51 Calm 7.00 Fair CLR 61 57 87% 29.92 1013.3
29 00:51 Calm 7.00 Fair CLR 61 57 87% 29.93 1013.4
28 23:51 Calm 8.00 Fair CLR 61 57 87% 29.92 1013.2
28 22:51 Calm 7.00 Fair CLR 61 57 73 61 87% 29.92 1013.1
28 21:51 N 5 8.00 Fair CLR 61 57 87% 29.92 1013.2
28 20:51 NW 9 8.00 Fair CLR 62.1 57 84% 29.9 1012.7
28 19:51 NW 5 7.00 Fair CLR 64.9 57.9 78% 29.89 1012.4
28 18:51 W 3 7.00 Fair CLR 68 57.9 70% 29.89 1012.3
28 17:51 W 3 7.00 Fair CLR 71.1 57.9 63% 29.9 1012.6
28 16:51 NW 13 6.00 Fair with Haze CLR 73.9 57.9 82 69.1 57% 29.91 1012.8
28 15:51 NW 8 6.00 Fair with Haze CLR 72 57.9 61% 29.92 1013.2
28 14:51 NW 13 6.00 Fair with Haze CLR 71.1 59 66% 29.93 1013.5
28 13:51 W 3 7.00 Fair CLR 70 59 68% 29.94 1013.7
28 12:51 W 20 G 25 7.00 Fair CLR 75 60.1 60% 77 29.94 1013.9
28 11:51 W 5 8.00 Fair CLR 80.1 59 49% 81 29.94 1013.7
28 10:51 W 6 8.00 Fair CLR 75.9 57.9 75.9 60.1 54% 78 29.95 1014.0
28 09:51 Vrbl 3 7.00 Fair CLR 71.1 57.9 63% 29.94 1013.7
28 08:51 W 3 6.00 Fair with Haze CLR 66 57.9 75% 29.94 1014.0
Date Time (pdt) Wind (mph) Vis. (mi.) Weather Sky Cond. Air Dwpt Max. Min. Relative Humidity Wind Chill (°F) Heat Index (°F) altimeter (in) sea level (mb) 1 hr 3 hr 6 hr
6 hour
Temperature (ºF) Pressure Precipitation (in)